Mesa, AZ (85212)

2:11 PM MST on February 10, 2016 (GMT -0700)
Encore at Eastmark | | Change Station
CLOSE
Current Station
Personal Weather Station
Location: Mesa, AZ
Elevation: 1417 ft
Nearby Weather Stations

Elev 1417 ft 33.32 °N, 111.62 °W | Updated 26 seconds ago

Partly Cloudy
Partly Cloudy
84.0 °F
Feels Like 81 °F
N
0.0
Wind Variable Wind from SE
Gusts 0.0 mph

Today
High -- | Low -- °F
--% Chance of Precip.
Yesterday
High -- | Low -- °F
Precip. -- in
Pressure 30.17 in
Visibility 45.0 miles
Clouds Few 25000 ft
Heat Index 81 °F
Dew Point 24 °F
Humidity 11%
Rainfall 0.00 in
Snow Depth Not available.
7:15 AM 6:06 PM
Waxing Crescent, 7% visible
METAR KIWA 102047Z 27004KT 45SM FEW250 26/M02 A3017
Pressure 30.17 in
Visibility 45.0 miles
Clouds Few 25000 ft
Heat Index 81 °F
Dew Point 24 °F
Humidity 11%
Rainfall 0.00 in
Snow Depth Not available.
7:15 AM 6:06 PM
Waxing Crescent, 7% visible
METAR KIWA 102047Z 27004KT 45SM FEW250 26/M02 A3017

10-Day Weather Forecast

Almanac

Astronomy

Feb. 10, 2016 Rise Set
Actual Time
Civil Twilight
Nautical Twilight
Astronomical Twilight
Moon
Length of Visible Light
Length of Day
Tomorrow will be .
, % of the Moon is Illuminated

Today's Extremes

State Highs State Lows

Community

WunderPhotos

Upload Photos

1,891,949 photos uploaded!

WunderBlog® & News

Nearby

Air Quality

  Air Quality AQ Index Pollutant
Not available.

Snow Depth

Station Depth Elevation

Earthquake Activity

City Distance Mag. Time & Date
Minimum magnitude displayed is 2.5.

Coastal Water Temperatures

Place Temperature

Stations

Nearby Weather Stations

Station Location Temp. Windchill Dew Point Humidity Wind Precip. Elev Updated Type
                   

Watches & Warnings

There are currently no watches in effect.